There are multiple Weather-warnings   Click here for more information


Meteo18 Weather Cam more information Meteo18 Weather Cam


warning for Thunderstorms more information blitzortung!


Rain radar more information rain snow radar


Visit our other weather sites:

Template documentation
and downloads

And another site



Weather Underground History page Text

Daily Summary for April 27, 2017 Units:  Metric    English   Both
« Previous Day
Next Day »
Daily Weekly Monthly Yearly Custom
  High: Low: Average:
Temperature: 11.1 °C 2.0 °C 5.8 °C
Dew Point: 3.4 °C -1.9 °C 0.8 °C
Humidity: 93 % 41 % 72 %
Wind Speed: 24.1 km/h 0.0 km/h 5.7 km/h
Wind Gust: 30.6 km/h - -
Wind:- - WSW
Pressure: 1018.8 hPa 1016.5 hPa -
Precipitation: 0.0 mm    
Historical Graphs
 
 
Tabular Data for April 27, 2017
Time Temperature Dew Point Pressure Wind Wind Speed Wind Gust Humidity Rainfall Rate (Hourly)
00:02 3.8 °C 1.2 °C 1017.2 hPa WNW 1.6 km/h 8.0 km/h 83 % 0.0 mm
00:07 3.7 °C 1.2 °C 1017.2 hPa WNW 1.6 km/h 6.4 km/h 84 % 0.0 mm
00:12 3.6 °C 1.2 °C 1017.2 hPa WNW 1.6 km/h 6.4 km/h 84 % 0.0 mm
00:17 3.5 °C 1.1 °C 1017.2 hPa Calm   4.8 km/h 84 % 0.0 mm
00:22 3.4 °C 1.1 °C 1017.2 hPa Calm   4.8 km/h 85 % 0.0 mm
00:32 3.3 °C 1.0 °C 1017.2 hPa Calm   3.2 km/h 85 % 0.0 mm
00:42 3.2 °C 0.9 °C 1017.2 hPa WNW 1.6 km/h 3.2 km/h 85 % 0.0 mm
00:47 3.1 °C 0.8 °C 1017.5 hPa NW 1.6 km/h 3.2 km/h 85 % 0.0 mm
00:52 3.1 °C 1.0 °C 1017.2 hPa NNW 1.6 km/h 3.2 km/h 86 % 0.0 mm
00:57 3.1 °C 1.0 °C 1017.2 hPa Calm   3.2 km/h 86 % 0.0 mm
01:02 3.1 °C 1.0 °C 1017.5 hPa NW 1.6 km/h 3.2 km/h 86 % 0.0 mm
01:12 3.1 °C 1.1 °C 1017.2 hPa NW 1.6 km/h 4.8 km/h 87 % 0.0 mm
01:17 3.1 °C 1.1 °C 1017.2 hPa Calm   4.8 km/h 87 % 0.0 mm
01:22 3.1 °C 1.1 °C 1017.2 hPa NW 4.8 km/h 4.8 km/h 87 % 0.0 mm
01:32 3.1 °C 1.1 °C 1017.2 hPa Calm   4.8 km/h 87 % 0.0 mm
01:37 3.1 °C 1.1 °C 1017.2 hPa Calm   4.8 km/h 87 % 0.0 mm
01:42 3.2 °C 1.2 °C 1017.2 hPa Calm   4.8 km/h 87 % 0.0 mm
01:52 3.2 °C 1.2 °C 1017.2 hPa NNW 3.2 km/h 4.8 km/h 87 % 0.0 mm
02:02 3.3 °C 1.3 °C 1017.2 hPa NNW 1.6 km/h 8.0 km/h 87 % 0.0 mm
02:12 3.2 °C 1.1 °C 1017.2 hPa NNW 3.2 km/h 9.7 km/h 86 % 0.0 mm
02:17 3.2 °C 1.1 °C 1017.2 hPa NW 8.0 km/h 9.7 km/h 86 % 0.0 mm
02:22 3.1 °C 1.0 °C 1017.2 hPa NW 1.6 km/h 9.7 km/h 86 % 0.0 mm
02:32 2.9 °C 1.0 °C 1017.2 hPa Calm   8.0 km/h 87 % 0.0 mm
02:37 2.9 °C 1.0 °C 1017.2 hPa Calm   8.0 km/h 87 % 0.0 mm
02:42 2.8 °C 1.0 °C 1017.2 hPa Calm   6.4 km/h 88 % 0.0 mm
02:47 2.9 °C 1.1 °C 1017.2 hPa Calm   4.8 km/h 88 % 0.0 mm
02:52 2.9 °C 1.1 °C 1017.2 hPa Calm   4.8 km/h 88 % 0.0 mm
03:02 2.9 °C 1.1 °C 1017.2 hPa West 1.6 km/h 6.4 km/h 88 % 0.0 mm
03:12 2.6 °C 0.8 °C 1017.2 hPa Calm   4.8 km/h 88 % 0.0 mm
03:17 2.4 °C 0.6 °C 1017.2 hPa WNW 1.6 km/h 4.8 km/h 88 % 0.0 mm
03:22 2.4 °C 0.8 °C 1017.2 hPa NW 1.6 km/h 4.8 km/h 89 % 0.0 mm
03:27 2.3 °C 0.7 °C 1017.2 hPa Calm   4.8 km/h 89 % 0.0 mm
03:32 2.3 °C 0.7 °C 1017.2 hPa NW 1.6 km/h 3.2 km/h 89 % 0.0 mm
03:42 2.2 °C 0.7 °C 1017.2 hPa Calm   6.4 km/h 90 % 0.0 mm
03:52 2.3 °C 0.8 °C 1017.2 hPa Calm   6.4 km/h 90 % 0.0 mm
03:57 2.3 °C 0.8 °C 1017.2 hPa NNW 1.6 km/h 6.4 km/h 90 % 0.0 mm
04:02 2.3 °C 0.8 °C 1017.2 hPa North 3.2 km/h 6.4 km/h 90 % 0.0 mm
04:12 2.2 °C 0.7 °C 1017.2 hPa Calm   8.0 km/h 90 % 0.0 mm
04:17 2.2 °C 0.7 °C 1017.2 hPa NNW 1.6 km/h 6.4 km/h 90 % 0.0 mm
04:22 2.2 °C 0.9 °C 1017.2 hPa North 4.8 km/h 6.4 km/h 91 % 0.0 mm
04:32 2.3 °C 1.0 °C 1017.2 hPa NNW 1.6 km/h 6.4 km/h 91 % 0.0 mm
04:42 2.3 °C 1.0 °C 1017.2 hPa Calm   8.0 km/h 91 % 0.0 mm
04:47 2.4 °C 1.1 °C 1017.2 hPa NW 1.6 km/h 6.4 km/h 91 % 0.0 mm
04:52 2.5 °C 1.0 °C 1017.2 hPa NNW 1.6 km/h 6.4 km/h 90 % 0.0 mm
04:57 2.5 °C 1.0 °C 1017.2 hPa North 1.6 km/h 6.4 km/h 90 % 0.0 mm
05:02 2.4 °C 0.9 °C 1017.2 hPa NNW 3.2 km/h 8.0 km/h 90 % 0.0 mm
05:12 2.4 °C 1.1 °C 1017.2 hPa NW 3.2 km/h 6.4 km/h 91 % 0.0 mm
05:17 2.4 °C 1.1 °C 1017.2 hPa Calm   6.4 km/h 91 % 0.0 mm
05:22 2.3 °C 1.0 °C 1017.2 hPa Calm   6.4 km/h 91 % 0.0 mm
05:32 2.3 °C 1.0 °C 1017.2 hPa NW 1.6 km/h 3.2 km/h 91 % 0.0 mm
05:42 2.2 °C 0.9 °C 1017.2 hPa Calm   3.2 km/h 91 % 0.0 mm
05:47 2.2 °C 0.9 °C 1017.2 hPa WNW 1.6 km/h 3.2 km/h 91 % 0.0 mm
05:52 2.2 °C 1.0 °C 1017.2 hPa NNW 4.8 km/h 4.8 km/h 92 % 0.0 mm
05:57 2.2 °C 1.0 °C 1017.2 hPa NW 1.6 km/h 3.2 km/h 92 % 0.0 mm
06:02 2.3 °C 1.1 °C 1017.2 hPa NW 1.6 km/h 6.4 km/h 92 % 0.0 mm
06:12 2.3 °C 1.1 °C 1017.2 hPa Calm   6.4 km/h 92 % 0.0 mm
06:17 2.3 °C 1.1 °C 1017.5 hPa NNW 1.6 km/h 6.4 km/h 92 % 0.0 mm
06:22 2.3 °C 1.1 °C 1017.5 hPa NNW 1.6 km/h 4.8 km/h 92 % 0.0 mm
06:32 2.4 °C 1.2 °C 1017.5 hPa North 3.2 km/h 4.8 km/h 92 % 0.0 mm
06:37 2.4 °C 1.2 °C 1017.5 hPa Calm   6.4 km/h 92 % 0.0 mm
06:42 2.4 °C 1.2 °C 1017.5 hPa Calm   6.4 km/h 92 % 0.0 mm
06:47 2.3 °C 1.0 °C 1017.5 hPa WNW 1.6 km/h 6.4 km/h 91 % 0.0 mm
06:52 2.1 °C 0.8 °C 1017.5 hPa WNW 1.6 km/h 3.2 km/h 91 % 0.0 mm
07:02 2.1 °C 0.9 °C 1017.8 hPa WNW 1.6 km/h 3.2 km/h 92 % 0.0 mm
07:12 2.0 °C 0.8 °C 1017.8 hPa Calm   4.8 km/h 92 % 0.0 mm
07:17 2.1 °C 1.1 °C 1017.8 hPa Calm   4.8 km/h 93 % 0.0 mm
07:22 2.1 °C 1.1 °C 1017.8 hPa Calm   3.2 km/h 93 % 0.0 mm
07:27 2.2 °C 1.2 °C 1017.8 hPa Calm   3.2 km/h 93 % 0.0 mm
07:32 2.3 °C 1.3 °C 1017.8 hPa NW 3.2 km/h 8.0 km/h 93 % 0.0 mm
07:37 2.4 °C 1.4 °C 1017.8 hPa Calm   8.0 km/h 93 % 0.0 mm
07:42 2.4 °C 1.4 °C 1017.8 hPa NW 1.6 km/h 9.7 km/h 93 % 0.0 mm
07:47 2.5 °C 1.5 °C 1017.8 hPa NW 1.6 km/h 9.7 km/h 93 % 0.0 mm
07:52 2.6 °C 1.6 °C 1017.8 hPa North 4.8 km/h 11.3 km/h 93 % 0.0 mm
07:57 2.7 °C 1.7 °C 1017.8 hPa North 4.8 km/h 11.3 km/h 93 % 0.0 mm
08:02 2.8 °C 1.8 °C 1017.8 hPa Calm   9.7 km/h 93 % 0.0 mm
08:12 3.0 °C 1.8 °C 1017.8 hPa NNW 4.8 km/h 9.7 km/h 92 % 0.0 mm
08:17 3.1 °C 1.9 °C 1017.8 hPa NNE 3.2 km/h 9.7 km/h 92 % 0.0 mm
08:22 3.2 °C 2.0 °C 1017.8 hPa NNE 1.6 km/h 9.7 km/h 92 % 0.0 mm
08:32 3.5 °C 2.2 °C 1018.2 hPa NNW 1.6 km/h 9.7 km/h 91 % 0.0 mm
08:42 4.1 °C 2.6 °C 1018.2 hPa NNW 4.8 km/h 9.7 km/h 90 % 0.0 mm
08:52 4.6 °C 2.6 °C 1018.2 hPa North 6.4 km/h 14.5 km/h 87 % 0.0 mm
09:02 4.4 °C 2.3 °C 1018.5 hPa NW 6.4 km/h 17.7 km/h 86 % 0.0 mm
09:12 4.4 °C 2.4 °C 1018.5 hPa NNW 3.2 km/h 12.9 km/h 87 % 0.0 mm
09:17 4.5 °C 2.4 °C 1018.5 hPa North 6.4 km/h 12.9 km/h 86 % 0.0 mm
09:22 4.4 °C 2.3 °C 1018.5 hPa NE 8.0 km/h 12.9 km/h 86 % 0.0 mm
09:32 4.4 °C 2.4 °C 1018.5 hPa NNW 8.0 km/h 12.9 km/h 87 % 0.0 mm
09:42 4.6 °C 2.5 °C 1018.5 hPa North 6.4 km/h 11.3 km/h 86 % 0.0 mm
09:52 4.8 °C 2.7 °C 1018.5 hPa Calm   16.1 km/h 86 % 0.0 mm
10:02 5.1 °C 2.8 °C 1018.5 hPa Calm   12.9 km/h 85 % 0.0 mm
10:12 5.5 °C 2.7 °C 1018.5 hPa NNE 3.2 km/h 12.9 km/h 82 % 0.0 mm
10:17 5.7 °C 2.9 °C 1018.5 hPa NE 6.4 km/h 12.9 km/h 82 % 0.0 mm
10:22 5.8 °C 2.6 °C 1018.5 hPa North 8.0 km/h 11.3 km/h 80 % 0.0 mm
10:32 5.9 °C 2.7 °C 1018.5 hPa NNW 3.2 km/h 9.7 km/h 80 % 0.0 mm
10:37 6.1 °C 2.7 °C 1018.5 hPa NNW 6.4 km/h 9.7 km/h 79 % 0.0 mm
10:42 6.2 °C 2.8 °C 1018.5 hPa NNW 6.4 km/h 9.7 km/h 79 % 0.0 mm
10:47 6.4 °C 3.0 °C 1018.5 hPa West 1.6 km/h 9.7 km/h 79 % 0.0 mm
10:52 6.7 °C 3.0 °C 1018.5 hPa NNE 3.2 km/h 9.7 km/h 77 % 0.0 mm
10:57 6.7 °C 2.8 °C 1018.5 hPa NW 3.2 km/h 9.7 km/h 76 % 0.0 mm
11:02 6.9 °C 3.0 °C 1018.8 hPa NNW 12.9 km/h 12.9 km/h 76 % 0.0 mm
11:12 7.4 °C 3.4 °C 1018.5 hPa WNW 3.2 km/h 16.1 km/h 76 % 0.0 mm
11:22 7.6 °C 3.3 °C 1018.5 hPa North 4.8 km/h 17.7 km/h 74 % 0.0 mm
11:32 7.6 °C 3.1 °C 1018.5 hPa North 11.3 km/h 22.5 km/h 73 % 0.0 mm
11:37 7.8 °C 2.7 °C 1018.5 hPa WSW 6.4 km/h 22.5 km/h 70 % 0.0 mm
11:42 7.8 °C 3.1 °C 1018.5 hPa NNW 16.1 km/h 22.5 km/h 72 % 0.0 mm
11:52 7.6 °C 2.5 °C 1018.2 hPa NE 6.4 km/h 20.9 km/h 70 % 0.0 mm
12:02 7.7 °C 2.4 °C 1018.2 hPa NNE 14.5 km/h 24.1 km/h 69 % 0.0 mm
12:12 7.9 °C 1.9 °C 1018.2 hPa North 9.7 km/h 24.1 km/h 66 % 0.0 mm
12:17 7.9 °C 2.4 °C 1018.2 hPa NNE 4.8 km/h 24.1 km/h 68 % 0.0 mm
12:22 7.7 °C 2.0 °C 1018.2 hPa North 4.8 km/h 24.1 km/h 67 % 0.0 mm
12:32 8.6 °C 2.0 °C 1017.8 hPa NE 16.1 km/h 24.1 km/h 63 % 0.0 mm
12:37 8.8 °C 1.9 °C 1017.8 hPa NNW 11.3 km/h 22.5 km/h 62 % 0.0 mm
12:42 8.9 °C 1.6 °C 1018.2 hPa North 14.5 km/h 22.5 km/h 60 % 0.0 mm
12:47 9.2 °C 1.4 °C 1017.8 hPa North 3.2 km/h 22.5 km/h 58 % 0.0 mm
12:57 9.4 °C 1.6 °C 1017.8 hPa NNW 12.9 km/h 27.4 km/h 58 % 0.0 mm
13:02 8.7 °C 0.9 °C 1018.2 hPa NNW 17.7 km/h 27.4 km/h 58 % 0.0 mm
13:12 7.8 °C 1.2 °C 1018.2 hPa NNW 9.7 km/h 29.0 km/h 63 % 0.0 mm
13:17 7.7 °C 0.4 °C 1018.2 hPa NW 6.4 km/h 29.0 km/h 60 % 0.0 mm
13:22 7.8 °C 0.3 °C 1018.2 hPa WNW 9.7 km/h 25.7 km/h 59 % 0.0 mm
13:32 8.9 °C 0.6 °C 1017.8 hPa NNW 8.0 km/h 20.9 km/h 56 % 0.0 mm
13:37 9.3 °C -0.1 °C 1017.8 hPa NW 4.8 km/h 20.9 km/h 52 % 0.0 mm
13:42 9.4 °C 0.3 °C 1017.8 hPa North 14.5 km/h 24.1 km/h 53 % 0.0 mm
13:47 9.7 °C 1.6 °C 1017.8 hPa NNW 14.5 km/h 25.7 km/h 57 % 0.0 mm
13:52 9.8 °C 0.9 °C 1017.8 hPa NNW 9.7 km/h 25.7 km/h 54 % 0.0 mm
14:02 9.1 °C -0.2 °C 1017.8 hPa North 11.3 km/h 20.9 km/h 52 % 0.0 mm
14:12 8.8 °C -0.3 °C 1017.8 hPa North 24.1 km/h 24.1 km/h 53 % 0.0 mm
14:17 9.1 °C 0.5 °C 1017.8 hPa NNW 17.7 km/h 30.6 km/h 55 % 0.0 mm
14:22 9.3 °C -0.3 °C 1017.8 hPa WNW 16.1 km/h 30.6 km/h 51 % 0.0 mm
14:32 10.3 °C 0.6 °C 1017.5 hPa NE 9.7 km/h 25.7 km/h 51 % 0.0 mm
14:37 10.8 °C 0.2 °C 1017.5 hPa NW 8.0 km/h 19.3 km/h 48 % 0.0 mm
14:42 10.6 °C 0.3 °C 1017.5 hPa WNW 12.9 km/h 19.3 km/h 49 % 0.0 mm
14:47 10.0 °C -0.8 °C 1017.5 hPa NE 4.8 km/h 27.4 km/h 47 % 0.0 mm
14:52 9.7 °C -0.8 °C 1017.5 hPa NNW 17.7 km/h 27.4 km/h 48 % 0.0 mm
15:02 10.3 °C -1.4 °C 1017.5 hPa NNW 24.1 km/h 25.7 km/h 44 % 0.0 mm
15:12 9.7 °C -1.1 °C 1017.5 hPa NNW 11.3 km/h 25.7 km/h 47 % 0.0 mm
15:17 9.7 °C -1.4 °C 1017.5 hPa NNE 3.2 km/h 27.4 km/h 46 % 0.0 mm
15:22 10.4 °C -1.6 °C 1017.2 hPa WNW 11.3 km/h 25.7 km/h 43 % 0.0 mm
15:27 10.6 °C -0.8 °C 1017.2 hPa NNW 20.9 km/h 22.5 km/h 45 % 0.0 mm
15:32 10.3 °C -0.5 °C 1017.2 hPa NNE 24.1 km/h 24.1 km/h 47 % 0.0 mm
15:42 9.7 °C -1.1 °C 1017.2 hPa NNW 8.0 km/h 29.0 km/h 47 % 0.0 mm
15:47 10.3 °C 0.3 °C 1017.2 hPa NNE 6.4 km/h 29.0 km/h 50 % 0.0 mm
15:52 10.7 °C -0.5 °C 1017.2 hPa North 11.3 km/h 29.0 km/h 46 % 0.0 mm
16:02 11.0 °C -0.5 °C 1016.8 hPa NNW 17.7 km/h 19.3 km/h 45 % 0.0 mm
16:12 9.9 °C -0.3 °C 1017.2 hPa NW 17.7 km/h 22.5 km/h 49 % 0.0 mm
16:17 9.7 °C -0.5 °C 1017.2 hPa NE 16.1 km/h 25.7 km/h 49 % 0.0 mm
16:22 9.6 °C -0.6 °C 1017.2 hPa NE 19.3 km/h 30.6 km/h 49 % 0.0 mm
16:27 9.3 °C -0.9 °C 1017.2 hPa NNE 14.5 km/h 30.6 km/h 49 % 0.0 mm
16:32 9.3 °C -1.2 °C 1017.2 hPa North 11.3 km/h 30.6 km/h 48 % 0.0 mm
16:42 9.3 °C -0.6 °C 1016.8 hPa NNE 19.3 km/h 29.0 km/h 50 % 0.0 mm
16:52 9.6 °C -0.3 °C 1016.8 hPa North 9.7 km/h 24.1 km/h 50 % 0.0 mm
16:57 10.1 °C -0.1 °C 1016.8 hPa NNW 11.3 km/h 20.9 km/h 49 % 0.0 mm
17:02 10.2 °C -1.2 °C 1016.8 hPa NE 9.7 km/h 20.9 km/h 45 % 0.0 mm
17:12 10.6 °C -0.5 °C 1016.8 hPa NNE 4.8 km/h 29.0 km/h 46 % 0.0 mm
17:17 10.5 °C -0.6 °C 1016.8 hPa NNE 4.8 km/h 25.7 km/h 46 % 0.0 mm
17:22 10.7 °C -1.4 °C 1016.5 hPa NNW 4.8 km/h 25.7 km/h 43 % 0.0 mm
17:27 10.9 °C -1.5 °C 1016.5 hPa NNE 6.4 km/h 17.7 km/h 42 % 0.0 mm
17:32 11.1 °C -1.7 °C 1016.5 hPa NNE 8.0 km/h 16.1 km/h 41 % 0.0 mm
17:42 10.9 °C -1.2 °C 1016.5 hPa NE 8.0 km/h 19.3 km/h 43 % 0.0 mm
17:52 10.3 °C -0.8 °C 1016.8 hPa North 17.7 km/h 27.4 km/h 46 % 0.0 mm
17:57 10.1 °C -1.9 °C 1016.5 hPa NNW 11.3 km/h 27.4 km/h 43 % 0.0 mm
18:02 10.0 °C -1.7 °C 1016.8 hPa North 8.0 km/h 27.4 km/h 44 % 0.0 mm
18:12 9.9 °C -1.2 °C 1016.8 hPa North 11.3 km/h 30.6 km/h 46 % 0.0 mm
18:17 9.9 °C -1.8 °C 1016.8 hPa NNW 9.7 km/h 19.3 km/h 44 % 0.0 mm
18:22 9.7 °C -0.2 °C 1016.8 hPa NNE 11.3 km/h 19.3 km/h 50 % 0.0 mm
18:32 8.9 °C 0.6 °C 1017.2 hPa West 9.7 km/h 27.4 km/h 56 % 0.0 mm
18:42 8.6 °C 0.6 °C 1017.2 hPa NNW 12.9 km/h 29.0 km/h 57 % 0.0 mm
18:52 8.8 °C 1.0 °C 1017.2 hPa WNW 1.6 km/h 25.7 km/h 58 % 0.0 mm
18:57 8.7 °C 0.4 °C 1017.2 hPa NW 16.1 km/h 25.7 km/h 56 % 0.0 mm
19:02 8.3 °C 0.5 °C 1017.2 hPa WNW 6.4 km/h 25.7 km/h 58 % 0.0 mm
19:12 8.1 °C 1.0 °C 1017.2 hPa WNW 6.4 km/h 22.5 km/h 61 % 0.0 mm
19:17 8.4 °C 0.8 °C 1017.2 hPa North 6.4 km/h 20.9 km/h 59 % 0.0 mm
19:22 8.7 °C 0.9 °C 1017.2 hPa NW 12.9 km/h 17.7 km/h 58 % 0.0 mm
19:27 8.8 °C 0.5 °C 1017.2 hPa NW 8.0 km/h 17.7 km/h 56 % 0.0 mm
19:32 8.9 °C 0.1 °C 1017.2 hPa NW 8.0 km/h 17.7 km/h 54 % 0.0 mm
19:42 8.9 °C 0.1 °C 1017.2 hPa West 11.3 km/h 19.3 km/h 54 % 0.0 mm
19:47 8.9 °C 0.1 °C 1017.2 hPa WNW 3.2 km/h 16.1 km/h 54 % 0.0 mm
19:52 8.9 °C 0.1 °C 1017.2 hPa WNW 3.2 km/h 16.1 km/h 54 % 0.0 mm
19:57 8.9 °C -0.4 °C 1017.5 hPa NW 8.0 km/h 14.5 km/h 52 % 0.0 mm
20:02 8.8 °C -0.8 °C 1017.2 hPa NW 11.3 km/h 17.7 km/h 51 % 0.0 mm
20:12 8.6 °C -1.0 °C 1017.5 hPa NW 4.8 km/h 22.5 km/h 51 % 0.0 mm
20:17 8.5 °C -1.1 °C 1017.5 hPa NNW 6.4 km/h 20.9 km/h 51 % 0.0 mm
20:22 8.4 °C -1.2 °C 1017.5 hPa North 6.4 km/h 20.9 km/h 51 % 0.0 mm
20:32 7.8 °C -1.4 °C 1017.5 hPa NNW 14.5 km/h 19.3 km/h 52 % 0.0 mm
20:37 7.6 °C -1.6 °C 1017.5 hPa NW 1.6 km/h 17.7 km/h 52 % 0.0 mm
20:42 7.4 °C -1.6 °C 1017.8 hPa NW 3.2 km/h 14.5 km/h 53 % 0.0 mm
20:47 7.3 °C -1.4 °C 1017.8 hPa NNW 6.4 km/h 14.5 km/h 54 % 0.0 mm
20:57 6.9 °C -0.3 °C 1017.8 hPa North 6.4 km/h 17.7 km/h 60 % 0.0 mm
21:02 6.7 °C 0.2 °C 1017.8 hPa NW 6.4 km/h 19.3 km/h 63 % 0.0 mm
21:12 6.1 °C 0.6 °C 1017.8 hPa NW 8.0 km/h 19.3 km/h 68 % 0.0 mm
21:17 5.8 °C 0.6 °C 1018.2 hPa WNW 6.4 km/h 14.5 km/h 69 % 0.0 mm
21:22 5.6 °C 0.8 °C 1018.2 hPa NW 1.6 km/h 14.5 km/h 71 % 0.0 mm
21:27 5.4 °C 0.8 °C 1018.2 hPa WNW 3.2 km/h 12.9 km/h 72 % 0.0 mm
21:32 5.2 °C 0.8 °C 1018.2 hPa Calm   12.9 km/h 73 % 0.0 mm
21:42 4.9 °C 0.7 °C 1018.2 hPa West 4.8 km/h 11.3 km/h 74 % 0.0 mm
21:47 4.8 °C 0.7 °C 1018.5 hPa WNW 3.2 km/h 9.7 km/h 75 % 0.0 mm
21:57 4.8 °C 0.7 °C 1018.5 hPa WNW 1.6 km/h 8.0 km/h 75 % 0.0 mm
22:02 4.8 °C 0.7 °C 1018.5 hPa NW 1.6 km/h 8.0 km/h 75 % 0.0 mm
22:07 4.8 °C 0.7 °C 1018.5 hPa Calm   8.0 km/h 75 % 0.0 mm
22:17 4.8 °C 0.9 °C 1018.5 hPa NNW 1.6 km/h 4.8 km/h 76 % 0.0 mm
22:22 4.8 °C 1.1 °C 1018.5 hPa NW 1.6 km/h 4.8 km/h 77 % 0.0 mm
22:32 4.7 °C 1.0 °C 1018.5 hPa NW 3.2 km/h 4.8 km/h 77 % 0.0 mm
22:37 4.7 °C 1.0 °C 1018.5 hPa NNW 3.2 km/h 6.4 km/h 77 % 0.0 mm
22:42 4.7 °C 1.0 °C 1018.5 hPa WNW 3.2 km/h 8.0 km/h 77 % 0.0 mm
22:47 4.7 °C 1.0 °C 1018.5 hPa NNW 3.2 km/h 9.7 km/h 77 % 0.0 mm
22:52 4.7 °C 1.0 °C 1018.5 hPa WNW 8.0 km/h 9.7 km/h 77 % 0.0 mm
22:57 4.7 °C 1.0 °C 1018.5 hPa WNW 1.6 km/h 9.7 km/h 77 % 0.0 mm
23:02 4.6 °C 0.9 °C 1018.5 hPa NW 1.6 km/h 9.7 km/h 77 % 0.0 mm
23:12 4.7 °C 1.0 °C 1018.5 hPa NNW 3.2 km/h 9.7 km/h 77 % 0.0 mm
23:17 4.7 °C 1.0 °C 1018.5 hPa WNW 3.2 km/h 6.4 km/h 77 % 0.0 mm
23:22 4.6 °C 0.9 °C 1018.5 hPa NW 1.6 km/h 8.0 km/h 77 % 0.0 mm
23:32 4.4 °C 0.9 °C 1018.5 hPa NW 1.6 km/h 8.0 km/h 78 % 0.0 mm
23:37 4.3 °C 0.8 °C 1018.5 hPa WNW 6.4 km/h 6.4 km/h 78 % 0.0 mm
23:42 4.2 °C 0.7 °C 1018.5 hPa WNW 1.6 km/h 3.2 km/h 78 % 0.0 mm
23:52 4.1 °C 0.6 °C 1018.5 hPa WNW 4.8 km/h 6.4 km/h 78 % 0.0 mm
23:57 4.2 °C 0.5 °C 1018.5 hPa WNW 8.0 km/h 11.3 km/h 77 % 0.0 mm
Meteo18
Compliments of Weather Underground - 4 mb

Script developed by  Jim McMurry - jmcmurry@mwt.net Adapted for the template by  Wim van der Kuil - Leuven-Template.eu

You find our weather info also at:

European Weather Network

Weather Underground

Equipment we use:

Weather-station
Davis Vue

Weather-program
Meteohub

Weather-server
Raspberry PI 2 B+

Provider
1 and 1

Davis Vue

Meteohub

Raspberry PI 2 B+

1 and 1